Dallesport, WA (98617)

3:17 AM PDT on August 22, 2014 (GMT -0700)
Downtown The Dalles | Change Station
CLOSE
Current Station
Personal Weather Station
Location: The Dalles, OR
Elevation: 100 ft
Nearby Weather Stations

Elev 100 ft 45.60 °N, 121.18 °W | Updated 0 second ago

Clear
Clear
70.8 °F
Feels Like 76 °F
N
9.0
Wind Variable Wind from NNW
Gusts 16.0 mph

Today
High -- | Low -- °F
--% Chance of Precip.
Yesterday
High -- | Low -- °F
Precip. -- in
6:13 AM 8:00 PM
Waning Crescent, 9% visible
Pressure 29.90 in
Visibility 10.0 miles
Clouds Clear
Heat Index 76 °F
Dew Point 55 °F
Humidity 57%
Rainfall 0.00 in
Snow Depth Not available.
UV 0 out of 12
Pollen 3.80 out of 12
Air Quality Not available.
Flu Activity Not available.
METAR KDLS 220953Z AUTO 32009KT 10SM CLR 19/09 A2991 RMK AO2 SLP125 T01890094

More Conditions Fewer Conditions

Pressure 29.90 in
Visibility 10.0 miles
Clouds Clear
Heat Index 76 °F
Dew Point 55 °F
Humidity 57%
Rainfall 0.00 in
Snow Depth Not available.
UV 0 out of 12
Pollen 3.80 out of 12
Air Quality Not available.
Flu Activity Not available.
METAR KDLS 220953Z AUTO 32009KT 10SM CLR 19/09 A2991 RMK AO2 SLP125 T01890094

More Conditions Fewer Conditions

10-Day Weather Forecast

Almanac

Astronomy

Aug. 22, 2014 Rise Set
Actual Time 6:13 AM PDT 8:00 PM PDT
Civil Twilight 5:42 AM PDT 8:31 PM PDT
Nautical Twilight 5:03 AM PDT 9:10 PM PDT
Astronomical Twilight 4:21 AM PDT 9:52 PM PDT
Moon 3:37 AM PDT 6:14 PM PDT
Length of Visible Light 14h 49m
Length of Day
13h 46m
Tomorrow will be 2m 58s shorter.
Waning Crescent, 9% of the Moon is Illuminated
Today
Waning Crescent
Aug 25
New
Sep 2
First Quarter
Sep 8
Full
Sep 15
Last Quarter

Today's Extremes

State Highs State Lows

Community

WunderPhotos

Upload Photos

1,746,147 photos uploaded!

Nearby

Snow Depth

Station Depth Elevation
Surprise Lakes 1 in 4250 ft
Potato Hill 0 in 4500 ft
Lost Horse 0 in 5000 ft
Spencer Meadow 0 in 3400 ft
June Lake 0 in 3340 ft

Earthquake Activity

City Distance Mag. Time & Date
No recent earthquake activity has been reported nearby.
Minimum magnitude displayed is 2.5.

Coastal Water Temperatures

Place Temperature
No Stations Reporting

Nearby Weather Stations